Terminal Aerodrome Forecast
Issued by NWS

Home | Current Version | Previous Version | Text Only | Print | Product List | Glossary On
Versions: 1 2 3 4 5 6 7 8 9 10 11 12 13 14 15 16 17 18
000
FTAK31 PANC 261120
TAFADQ
TAF
PADQ 261120Z 2612/2712 25004KT P6SM SCT060 BKN100
     FM261800 13007KT P6SM VCSH SCT030 BKN045
     FM270000 11010KT P6SM -SHRA SCT025 OVC035
     FM270400 11010KT P6SM -RA SCT015 OVC025=

USA.gov is the U.S. government's official web portal to all federal, state and local government web resources and services.